Kalama, Washington
Current Conditions -  °F | °C
As of 6:15 AM on Thursday 29 Jan 2015 (Local Time) from KKLS Reporting Station
Overcast Overcast  
Wind Chill: 45°   Ceiling: 600
Heat Index: 45°   Visibility: 10mi
Dew Point: 39°   Wind: 0mph
Humidity: 81%   Direction: NA
Pressure: 30.37"   Gusts: NA
Location:  46.01°N, 122.84°W
Report Text: KKLS 291415Z 00000KT 10SM OVC006 07/04 A3037 RMK AO1
Loading
Personal Weather Stations






























Interactive Weather Map New forecast layout! Learn more

10-Day Weather Forecast

Advertisements
Track Severe Weather on mobile